Time;durP1;ratioP1;P1;durP2;ratioP2;P2;SDS_P1;SDS_P2;PMS_P1;PMS_P2;Temp;Humidity;BMP_temperature;BMP_pressure;BME280_temperature;BME280_humidity;BME280_pressure;Samples;Min_cycle;Max_cycle;Signal;HPM_P1;HPM_P2
2022/04/18 00:02:12;;;;;;;113.42;54.40;;;;;;;-0.09;82.10;94567.05;1708136;84;21566;-51
2022/04/18 00:04:41;;;;;;;109.60;54.90;;;;;;;-0.02;82.01;94567.08;1707703;84;21026;-51
2022/04/18 00:07:09;;;;;;;118.33;58.38;;;;;;;0.03;81.72;94561.48;1707962;82;21019;-52
2022/04/18 00:09:37;;;;;;;117.65;59.03;;;;;;;0.08;81.82;94556.27;1707782;84;21175;-51
2022/04/18 00:12:07;;;;;;;113.85;57.03;;;;;;;0.18;81.68;94561.69;1707815;84;21481;-50
2022/04/18 00:14:34;;;;;;;106.63;55.43;;;;;;;0.20;81.14;94568.83;1707802;84;21022;-50
2022/04/18 00:17:03;;;;;;;118.50;60.23;;;;;;;0.19;80.76;94554.36;1707739;84;21094;-52
2022/04/18 00:19:31;;;;;;;133.50;61.48;;;;;;;0.19;80.53;94551.06;1707893;84;20931;-51
2022/04/18 00:21:59;;;;;;;127.10;63.45;;;;;;;0.21;80.63;94546.63;1707848;84;21232;-50
2022/04/18 00:24:28;;;;;;;122.33;61.68;;;;;;;0.21;80.04;94547.39;1707849;84;20959;-51
2022/04/18 00:26:56;;;;;;;111.28;58.23;;;;;;;0.19;80.01;94547.00;1682326;84;21113;-52
2022/04/18 00:29:23;;;;;;;91.70;48.08;;;;;;;0.19;79.79;94542.95;1707804;84;20999;-52
2022/04/18 00:31:52;;;;;;;73.65;37.93;;;;;;;0.15;79.37;94541.39;1707878;84;21141;-52
2022/04/18 00:34:20;;;;;;;73.17;38.38;;;;;;;0.06;79.08;94539.66;1682242;84;20960;-52
2022/04/18 00:36:48;;;;;;;61.15;34.23;;;;;;;-0.01;79.14;94528.27;1707715;84;21007;-50
2022/04/18 00:39:17;;;;;;;64.90;33.85;;;;;;;-0.03;79.06;94528.44;1707839;84;20985;-51
2022/04/18 00:41:44;;;;;;;61.33;33.15;;;;;;;-0.02;79.02;94523.82;1707669;84;21019;-50
2022/04/18 00:44:11;;;;;;;63.13;32.70;;;;;;;-0.04;78.74;94522.09;1707918;84;20983;-50
2022/04/18 00:46:39;;;;;;;66.72;33.05;;;;;;;-0.06;79.02;94528.46;1707848;84;21104;-50
2022/04/18 00:49:07;;;;;;;63.25;31.90;;;;;;;-0.06;79.25;94523.81;1707790;84;20992;-51
2022/04/18 00:51:35;;;;;;;62.03;34.20;;;;;;;-0.01;79.38;94522.06;1708045;84;21149;-53
2022/04/18 00:54:02;;;;;;;59.65;32.15;;;;;;;0.03;79.21;94522.27;1681670;84;21086;-49
2022/04/18 00:56:29;;;;;;;57.93;32.65;;;;;;;0.03;79.12;94512.05;1659360;84;20963;-51
2022/04/18 00:58:56;;;;;;;58.20;31.37;;;;;;;-0.01;79.03;94510.69;1682060;84;21944;-51
2022/04/18 01:01:23;;;;;;;71.35;35.20;;;;;;;0.00;79.39;94508.17;1706191;84;21486;-51
2022/04/18 01:03:52;;;;;;;63.25;31.23;;;;;;;-0.02;79.47;94513.20;1705911;84;21554;-51
2022/04/18 01:06:19;;;;;;;55.48;30.88;;;;;;;0.03;80.14;94500.64;1706247;84;20975;-53
2022/04/18 01:08:48;;;;;;;57.15;29.45;;;;;;;0.06;79.95;94502.56;1706410;84;21003;-51
2022/04/18 01:11:16;;;;;;;49.65;27.15;;;;;;;0.08;79.96;94497.55;1706517;84;21771;-50
2022/04/18 01:14:04;;;;;;;59.23;29.98;;;;;;;0.05;79.88;94490.80;1706349;84;20976;-52
2022/04/18 01:16:36;;;;;;;60.35;31.97;;;;;;;-0.02;79.90;94487.52;1673241;84;21047;-51
2022/04/18 01:19:05;;;;;;;72.32;34.23;;;;;;;-0.06;80.15;94483.86;1703901;84;21081;-51
2022/04/18 01:21:42;;;;;;;64.70;34.40;;;;;;;-0.06;80.46;94483.86;1638006;87;21121;-51
2022/04/18 01:30:06;;;;;;;70.85;34.13;;;;;;;0.13;81.09;94475.55;1706111;83;21123;-51
2022/04/18 01:32:33;;;;;;;83.55;40.65;;;;;;;0.23;80.71;94473.98;1706381;84;21041;-51
2022/04/18 01:35:00;;;;;;;86.60;39.10;;;;;;;0.18;80.22;94475.14;1706173;84;21029;-51
2022/04/18 01:37:29;;;;;;;76.22;37.93;;;;;;;0.13;80.00;94471.48;1706389;84;21273;-52
2022/04/18 01:39:58;;;;;;;67.60;35.85;;;;;;;0.07;80.01;94468.20;1706354;84;20965;-52
2022/04/18 01:42:25;;;;;;;73.80;35.60;;;;;;;0.02;80.04;94468.59;1706105;84;21073;-51
2022/04/18 01:44:54;;;;;;;63.35;31.90;;;;;;;-0.02;79.95;94473.21;1706262;84;21525;-52
2022/04/18 01:47:21;;;;;;;76.82;36.33;;;;;;;-0.03;80.16;94462.80;1706339;84;21029;-51
2022/04/18 01:49:50;;;;;;;67.53;34.40;;;;;;;-0.06;80.25;94466.28;1706205;82;20984;-50
2022/04/18 01:52:18;;;;;;;74.75;38.30;;;;;;;-0.07;80.22;94462.80;1706221;84;21038;-53
2022/04/18 01:54:45;;;;;;;87.75;36.98;;;;;;;-0.09;80.43;94454.87;1684052;84;21021;-51
2022/04/18 01:57:14;;;;;;;82.70;39.78;;;;;;;-0.10;80.15;94455.47;1706558;84;21549;-52
2022/04/18 01:59:42;;;;;;;76.50;36.85;;;;;;;-0.18;80.21;94453.14;1679394;84;21453;-55
2022/04/18 02:02:11;;;;;;;81.05;38.28;;;;;;;-0.12;80.98;94454.30;1695470;84;21264;-51
2022/04/18 02:04:39;;;;;;;77.05;35.98;;;;;;;-0.07;80.92;94449.88;1695461;84;21455;-50
2022/04/18 02:07:09;;;;;;;95.77;43.15;;;;;;;-0.04;81.00;94450.45;1695408;84;21030;-52
2022/04/18 02:09:38;;;;;;;95.80;41.80;;;;;;;0.01;81.29;94448.13;1695544;84;21077;-53
2022/04/18 02:12:08;;;;;;;85.62;38.42;;;;;;;0.13;81.23;94441.74;1695652;84;21017;-50
2022/04/18 02:14:37;;;;;;;75.57;37.25;;;;;;;0.22;80.95;94435.34;1694907;83;21873;-52
2022/04/18 02:17:06;;;;;;;98.95;43.95;;;;;;;0.27;80.64;94436.89;1695695;84;20961;-51
2022/04/18 02:19:34;;;;;;;86.05;38.83;;;;;;;0.25;80.01;94439.97;1695471;84;21010;-52
2022/04/18 02:22:03;;;;;;;78.80;34.95;;;;;;;0.23;80.03;94436.88;1695476;84;21121;-53
2022/04/18 02:24:31;;;;;;;95.83;46.40;;;;;;;0.16;79.67;94433.41;1695615;83;21025;-52
2022/04/18 02:26:58;;;;;;;85.00;40.23;;;;;;;0.08;80.03;94434.59;1695619;83;21310;-52
2022/04/18 02:29:25;;;;;;;76.55;37.95;;;;;;;0.08;80.15;94428.59;1695464;84;21112;-52
2022/04/18 02:34:37;;;;;;;61.55;32.15;;;;;;;0.09;80.45;94423.97;1695517;84;21001;-51
2022/04/18 02:37:04;;;;;;;53.20;30.35;;;;;;;0.16;80.56;94431.50;1673973;84;21049;-51
2022/04/18 02:39:34;;;;;;;52.27;29.15;;;;;;;0.23;80.51;94430.13;1674343;84;21006;-52
2022/04/18 02:42:03;;;;;;;53.98;30.55;;;;;;;0.31;80.32;94424.13;1695556;84;21042;-51
2022/04/18 02:44:31;;;;;;;41.63;23.85;;;;;;;0.40;79.86;94423.91;1695432;84;20989;-50
2022/04/18 02:46:58;;;;;;;50.67;27.95;;;;;;;0.43;79.21;94421.77;1695525;83;21038;-51
2022/04/18 02:49:25;;;;;;;64.67;34.65;;;;;;;0.33;78.80;94425.28;1695538;83;21073;-52
2022/04/18 02:51:52;;;;;;;117.40;50.98;;;;;;;0.26;78.49;94421.22;1695658;84;21233;-51
2022/04/18 02:54:19;;;;;;;91.95;43.52;;;;;;;0.12;78.48;94419.92;1695338;84;20966;-51
2022/04/18 02:56:46;;;;;;;89.75;42.85;;;;;;;0.05;78.47;94418.56;1695375;84;20986;-51
2022/04/18 02:59:13;;;;;;;102.30;46.08;;;;;;;-0.05;78.38;94416.47;1695109;83;21097;-51
2022/04/18 03:01:41;;;;;;;90.85;44.10;;;;;;;-0.11;78.92;94416.64;1693763;84;21450;-51
2022/04/18 03:04:08;;;;;;;77.97;38.70;;;;;;;-0.06;79.58;94413.57;1693941;84;22062;-51
2022/04/18 03:06:36;;;;;;;75.40;37.25;;;;;;;0.03;79.51;94406.02;1672447;84;21026;-50
2022/04/18 03:09:05;;;;;;;78.00;39.50;;;;;;;0.08;79.20;94411.02;1672003;84;21168;-51
2022/04/18 03:11:32;;;;;;;75.35;37.30;;;;;;;0.11;79.37;94412.19;1693822;84;21631;-51
2022/04/18 03:14:00;;;;;;;67.10;32.23;;;;;;;0.17;79.36;94416.03;1649903;84;20966;-51
2022/04/18 03:16:38;;;;;;;64.17;32.60;;;;;;;0.16;78.68;94411.22;1693281;84;21140;-50
2022/04/18 03:19:05;;;;;;;76.42;37.55;;;;;;;0.08;78.44;94407.56;1693741;84;21046;-51
2022/04/18 03:21:34;;;;;;;85.45;38.92;;;;;;;-0.02;78.40;94412.39;1693594;84;21106;-51
2022/04/18 03:24:05;;;;;;;91.95;41.65;;;;;;;-0.10;78.31;94416.27;1693818;84;21082;-51
2022/04/18 03:26:39;;;;;;;93.27;40.70;;;;;;;-0.23;78.37;94410.30;1693330;84;20985;-50
2022/04/18 03:29:21;;;;;;;83.10;39.42;;;;;;;-0.34;78.76;94412.22;1694079;84;21429;-50
2022/04/18 03:31:49;;;;;;;82.70;38.88;;;;;;;-0.41;79.11;94406.82;1693413;83;21018;-51
2022/04/18 03:34:18;;;;;;;94.70;43.52;;;;;;;-0.44;79.28;94407.00;1693667;84;20994;-51
2022/04/18 03:42:19;;;;;;;88.22;39.27;;;;;;;-0.60;79.89;94403.14;1693667;84;21225;-51
2022/04/18 03:44:47;;;;;;;96.30;42.20;;;;;;;-0.64;80.22;94409.09;1671725;84;21034;-51
2022/04/18 03:47:15;;;;;;;70.42;33.70;;;;;;;-0.67;80.57;94407.17;1694249;84;21010;-50
2022/04/18 03:49:42;;;;;;;98.85;42.27;;;;;;;-0.65;80.86;94406.20;1693759;84;21133;-52
2022/04/18 03:52:09;;;;;;;72.27;35.40;;;;;;;-0.67;80.88;94402.55;1693755;84;20989;-51
2022/04/18 03:54:43;;;;;;;94.70;43.68;;;;;;;-0.71;80.95;94408.54;1693711;84;21001;-51
2022/04/18 03:57:13;;;;;;;101.50;45.92;;;;;;;-0.78;81.25;94402.35;1693598;84;21453;-50
2022/04/18 03:59:41;;;;;;;98.90;46.70;;;;;;;-0.82;81.40;94400.98;1695579;83;21178;-51
2022/04/18 04:02:09;;;;;;;96.63;44.08;;;;;;;-0.85;81.60;94396.92;1708147;84;20993;-51
2022/04/18 04:04:41;;;;;;;92.50;42.20;;;;;;;-0.87;81.70;94398.67;1708100;83;20965;-51
2022/04/18 04:07:10;;;;;;;78.12;37.23;;;;;;;-0.83;82.01;94395.39;1707989;84;21164;-53
2022/04/18 04:09:37;;;;;;;100.40;51.48;;;;;;;-0.84;81.71;94395.77;1707842;84;21024;-52
2022/04/18 04:12:06;;;;;;;95.03;45.78;;;;;;;-0.88;81.85;94393.64;1708046;84;21024;-50
2022/04/18 04:14:35;;;;;;;95.92;44.85;;;;;;;-0.87;82.00;94387.09;1707295;84;21013;-49
2022/04/18 04:17:04;;;;;;;84.83;40.98;;;;;;;-0.86;81.88;94380.53;1682421;84;21088;-51
2022/04/18 04:19:33;;;;;;;90.28;45.28;;;;;;;-0.87;81.89;94376.29;1708025;83;21017;-50
2022/04/18 04:22:03;;;;;;;78.92;40.38;;;;;;;-0.87;81.93;94376.29;1707327;84;21001;-50
2022/04/18 04:24:31;;;;;;;110.00;48.60;;;;;;;-0.84;81.78;94379.56;1708111;84;21088;-51
2022/04/18 04:27:00;;;;;;;116.28;50.48;;;;;;;-0.85;81.70;94373.98;1681964;84;21465;-51
2022/04/18 04:29:27;;;;;;;113.57;51.15;;;;;;;-0.89;81.68;94382.66;1708070;84;20969;-52
2022/04/18 04:31:56;;;;;;;91.60;43.23;;;;;;;-0.89;81.81;94375.91;1708383;84;21528;-52
2022/04/18 04:34:24;;;;;;;91.30;46.75;;;;;;;-0.88;81.65;94376.09;1707883;84;21017;-52
2022/04/18 04:36:53;;;;;;;101.50;49.45;;;;;;;-0.95;81.80;94380.91;1705903;84;21110;-52
2022/04/18 04:39:21;;;;;;;104.38;50.15;;;;;;;-0.98;81.84;94376.27;1708218;83;20965;-52
2022/04/18 04:41:48;;;;;;;118.42;56.35;;;;;;;-0.95;81.77;94372.80;1708172;84;21453;-51
2022/04/18 04:44:17;;;;;;;112.45;53.75;;;;;;;-0.95;81.75;94369.34;1708145;84;21062;-51
2022/04/18 04:46:46;;;;;;;86.92;44.67;;;;;;;-0.88;81.72;94370.70;1706800;84;21033;-52
2022/04/18 04:49:14;;;;;;;90.62;45.33;;;;;;;-0.81;81.61;94365.33;1708218;83;21133;-50
2022/04/18 04:51:42;;;;;;;104.65;48.08;;;;;;;-0.82;81.18;94363.75;1707069;84;21057;-55
2022/04/18 04:54:11;;;;;;;96.28;48.60;;;;;;;-0.84;81.02;94360.67;1708021;84;21029;-54
2022/04/18 04:56:40;;;;;;;92.97;53.45;;;;;;;-0.79;81.50;94364.36;1708128;84;21168;-55
2022/04/18 04:59:07;;;;;;;114.67;54.45;;;;;;;-0.67;81.49;94365.31;1707813;84;21016;-56
2022/04/18 05:01:35;;;;;;;107.43;54.20;;;;;;;-0.56;81.48;94371.50;1708003;82;21572;-55
2022/04/18 05:04:04;;;;;;;120.85;59.85;;;;;;;-0.42;81.23;94367.45;1708272;84;21033;-60
2022/04/18 05:06:33;;;;;;;102.50;51.45;;;;;;;-0.27;81.11;94363.56;1708068;84;21076;-62
2022/04/18 05:09:03;;;;;;;105.17;51.70;;;;;;;-0.14;80.54;94368.20;1708111;83;21073;-54
2022/04/18 05:11:33;;;;;;;109.95;53.78;;;;;;;-0.04;80.02;94362.59;1681892;84;21162;-54
2022/04/18 05:14:01;;;;;;;81.15;42.25;;;;;;;0.04;79.81;94356.19;1708010;84;21088;-52
2022/04/18 05:16:34;;;;;;;79.05;43.78;;;;;;;0.12;79.01;94356.94;1705479;84;21009;-53
2022/04/18 05:19:06;;;;;;;72.40;41.63;;;;;;;0.11;78.84;94359.45;1707013;84;21029;-54
2022/04/18 05:21:34;;;;;;;82.60;45.23;;;;;;;0.21;78.88;94358.08;1707898;84;22265;-54
2022/04/18 05:24:05;;;;;;;72.42;44.20;;;;;;;0.28;78.37;94355.37;1681862;84;21530;-56
2022/04/18 05:26:32;;;;;;;73.42;39.80;;;;;;;0.31;78.01;94362.70;1681828;82;21082;-53
2022/04/18 05:28:59;;;;;;;61.08;37.85;;;;;;;0.34;77.62;94353.80;1708421;83;21000;-52
2022/04/18 05:31:26;;;;;;;66.42;37.98;;;;;;;0.33;77.49;94354.95;1708405;82;21589;-54
2022/04/18 05:33:55;;;;;;;57.75;34.60;;;;;;;0.35;77.39;94352.63;1706852;81;21681;-54
2022/04/18 05:36:30;;;;;;;56.55;36.03;;;;;;;0.44;77.08;94353.56;1717891;81;21057;-51
2022/04/18 05:38:58;;;;;;;49.98;31.42;;;;;;;0.60;77.33;94356.59;1710461;81;21050;-53
2022/04/18 05:41:27;;;;;;;50.70;29.87;;;;;;;0.85;77.28;94352.61;1682471;84;21080;-52
2022/04/18 05:43:54;;;;;;;51.90;30.10;;;;;;;1.17;76.54;94350.47;1718760;81;21056;-49
2022/04/18 05:46:24;;;;;;;58.55;33.90;;;;;;;1.39;76.05;94342.97;1712534;81;21592;-51
2022/04/18 05:48:52;;;;;;;65.90;39.85;;;;;;;1.66;75.28;94342.58;1722596;81;20956;-51
2022/04/18 05:51:19;;;;;;;78.55;42.85;;;;;;;1.87;74.74;94348.56;1717724;82;20976;-51
2022/04/18 05:53:46;;;;;;;83.62;46.33;;;;;;;2.17;74.31;94340.53;1692122;83;21073;-50
2022/04/18 05:56:15;;;;;;;71.28;42.62;;;;;;;2.46;73.43;94339.03;1722995;81;20997;-49
2022/04/18 05:58:45;;;;;;;67.55;41.10;;;;;;;2.67;72.72;94335.48;1708163;81;22209;-51
2022/04/18 06:01:29;;;;;;;54.05;34.03;;;;;;;2.77;71.78;94329.17;1672582;82;21054;-51
2022/04/18 06:03:57;;;;;;;60.85;37.40;;;;;;;2.79;70.76;94330.89;1695100;82;21542;-51
2022/04/18 06:06:24;;;;;;;65.92;40.95;;;;;;;2.76;70.57;94332.28;1718520;82;20980;-52
2022/04/18 06:08:51;;;;;;;65.65;39.73;;;;;;;2.78;70.86;94323.13;1698311;82;20986;-51
2022/04/18 06:11:22;;;;;;;62.55;37.15;;;;;;;2.91;70.75;94324.13;1690273;82;21369;-52
2022/04/18 06:14:08;;;;;;;64.62;37.17;;;;;;;3.05;70.83;94326.06;1716137;82;21161;-51
2022/04/18 06:16:36;;;;;;;76.25;42.80;;;;;;;3.19;70.17;94328.59;1711566;82;21091;-52
2022/04/18 06:19:04;;;;;;;69.30;41.85;;;;;;;3.23;70.16;94323.11;1712361;82;21449;-52
2022/04/18 06:21:33;;;;;;;71.25;42.03;;;;;;;3.39;70.32;94320.55;1690616;82;21052;-51
2022/04/18 06:24:02;;;;;;;66.37;40.78;;;;;;;3.65;70.12;94323.98;1709386;82;21614;-49
2022/04/18 06:26:44;;;;;;;68.52;39.20;;;;;;;3.84;69.64;94320.56;1689009;83;21093;-50
2022/04/18 06:29:12;;;;;;;76.45;47.80;;;;;;;3.95;68.92;94317.08;1686038;83;21103;-53
2022/04/18 06:31:41;;;;;;;73.60;43.90;;;;;;;4.04;68.64;94320.02;1691649;82;21121;-51
2022/04/18 06:34:08;;;;;;;76.82;44.88;;;;;;;4.15;68.37;94314.37;1673508;83;21040;-54
2022/04/18 06:36:37;;;;;;;64.42;41.65;;;;;;;4.26;68.74;94314.36;1679240;83;26332;-52
2022/04/18 06:39:10;;;;;;;59.27;35.80;;;;;;;4.41;68.43;94317.00;1678374;83;21115;-53
2022/04/18 06:41:38;;;;;;;56.73;33.28;;;;;;;4.56;67.90;94311.45;1687168;83;21110;-51
2022/04/18 06:44:08;;;;;;;60.65;37.00;;;;;;;4.67;67.22;94307.94;1713561;82;22428;-51
2022/04/18 06:46:37;;;;;;;63.52;38.53;;;;;;;4.73;67.22;94306.25;1696875;83;21065;-53
2022/04/18 06:49:06;;;;;;;56.33;36.10;;;;;;;4.85;67.28;94309.70;1696784;83;21352;-53
2022/04/18 06:51:44;;;;;;;54.70;32.93;;;;;;;4.98;66.01;94303.77;1662570;84;21106;-50
2022/04/18 06:54:33;;;;;;;62.75;36.77;;;;;;;5.08;66.29;94304.14;1687359;83;21055;-51
2022/04/18 06:57:08;;;;;;;44.98;26.12;;;;;;;5.25;66.42;94305.72;1709286;82;21503;-52
2022/04/18 06:59:39;;;;;;;32.88;21.95;;;;;;;5.49;65.74;94308.47;1710343;82;21078;-54
2022/04/18 07:02:07;;;;;;;48.75;28.77;;;;;;;5.67;64.76;94304.73;1696113;82;21072;-52
2022/04/18 07:04:34;;;;;;;34.75;21.45;;;;;;;5.75;64.05;94302.77;1692045;83;21015;-55
2022/04/18 07:07:01;;;;;;;40.03;21.42;;;;;;;5.75;62.92;94296.55;1691318;83;21008;-54
2022/04/18 07:09:31;;;;;;;30.17;19.57;;;;;;;5.78;62.00;94297.06;1696744;83;21928;-51
2022/04/18 07:12:03;;;;;;;31.25;21.50;;;;;;;5.75;60.60;94293.83;1663911;84;20919;-56
2022/04/18 07:14:30;;;;;;;27.02;17.98;;;;;;;5.75;60.47;94288.38;1693707;83;22287;-54
2022/04/18 07:16:59;;;;;;;18.87;13.10;;;;;;;5.82;60.75;94282.14;1657521;84;21452;-52
2022/04/18 07:19:28;;;;;;;21.80;13.35;;;;;;;6.01;58.62;94281.88;1665831;84;21073;-53
2022/04/18 07:21:56;;;;;;;22.13;14.13;;;;;;;6.04;57.97;94283.16;1664617;84;21018;-56
2022/04/18 07:24:25;;;;;;;21.42;15.43;;;;;;;6.21;57.41;94278.43;1659017;84;21213;-52
2022/04/18 07:26:53;;;;;;;25.85;17.77;;;;;;;6.43;57.62;94272.56;1679753;84;21183;-54
2022/04/18 07:29:22;;;;;;;24.82;16.45;;;;;;;6.65;57.82;94274.87;1672868;84;21090;-53
2022/04/18 07:31:56;;;;;;;24.67;16.75;;;;;;;6.91;57.62;94262.80;1681370;84;21096;-53
2022/04/18 07:34:24;;;;;;;19.73;13.20;;;;;;;7.09;56.94;94267.91;1676137;84;21134;-54
2022/04/18 07:36:52;;;;;;;23.92;15.40;;;;;;;7.18;55.53;94261.95;1662822;84;20972;-51
2022/04/18 07:39:29;;;;;;;17.57;13.50;;;;;;;7.28;56.50;94259.50;1678539;84;22318;-50
2022/04/18 07:41:57;;;;;;;14.28;10.93;;;;;;;7.54;56.40;94261.63;1679137;84;21161;-54
2022/04/18 07:44:27;;;;;;;23.18;15.55;;;;;;;7.71;54.46;94256.95;1676425;84;21081;-53
2022/04/18 07:46:58;;;;;;;20.48;10.98;;;;;;;7.84;53.99;94249.48;1679609;84;21516;-52
2022/04/18 07:49:29;;;;;;;11.88;9.13;;;;;;;8.00;53.04;94250.72;1673906;84;21040;-52
2022/04/18 07:51:56;;;;;;;9.28;7.78;;;;;;;8.13;53.34;94254.19;1674424;84;21254;-54
2022/04/18 07:54:32;;;;;;;11.12;7.60;;;;;;;8.24;50.83;94253.23;1678589;84;21123;-53
2022/04/18 07:57:00;;;;;;;12.28;7.08;;;;;;;8.14;49.62;94242.02;1677000;84;21033;-54
2022/04/18 07:59:29;;;;;;;13.85;7.45;;;;;;;8.09;50.17;94243.94;1676512;84;21116;-54
2022/04/18 08:01:57;;;;;;;17.75;10.25;;;;;;;8.09;50.39;94237.70;1672964;82;21073;-55
2022/04/18 08:04:42;;;;;;;10.03;7.00;;;;;;;8.05;51.30;94242.55;1647732;83;21084;-52
2022/04/18 08:07:11;;;;;;;10.25;7.60;;;;;;;7.97;51.11;94251.60;1689606;83;21143;-55
2022/04/18 08:09:41;;;;;;;31.50;18.52;;;;;;;7.84;49.69;94259.07;1711989;82;21005;-56
2022/04/18 08:12:12;;;;;;;16.85;8.78;;;;;;;7.34;51.03;94250.91;1674764;83;21478;-55
2022/04/18 08:14:41;;;;;;;13.60;9.47;;;;;;;6.71;53.41;94255.38;1691923;83;21107;-54
2022/04/18 08:17:11;;;;;;;15.25;12.23;;;;;;;6.19;55.64;94250.17;1699490;83;22728;-54
2022/04/18 08:19:42;;;;;;;22.25;9.83;;;;;;;5.83;57.27;94257.00;1672000;83;21201;-58
2022/04/18 08:22:10;;;;;;;17.10;10.80;;;;;;;5.71;58.18;94257.65;1711155;82;21035;-52
2022/04/18 08:24:58;;;;;;;52.08;30.30;;;;;;;5.66;55.75;94254.86;1624241;86;21097;-55
2022/04/18 08:27:45;;;;;;;21.05;13.15;;;;;;;5.59;56.57;94258.36;1687166;83;21057;-53
2022/04/18 08:30:14;;;;;;;16.75;11.50;;;;;;;5.51;55.72;94256.39;1683111;84;21455;-53
2022/04/18 08:32:54;;;;;;;17.60;9.18;;;;;;;5.29;56.86;94260.83;1650621;84;21078;-51
2022/04/18 08:35:21;;;;;;;10.20;8.05;;;;;;;4.94;57.96;94265.53;1698694;82;21136;-55
2022/04/18 08:37:48;;;;;;;10.55;9.08;;;;;;;4.55;58.42;94251.95;1716640;82;21021;-54
2022/04/18 08:40:21;;;;;;;12.47;9.58;;;;;;;4.26;59.64;94259.91;1709508;82;21098;-53
2022/04/18 08:42:48;;;;;;;25.20;14.75;;;;;;;4.12;60.62;94256.70;1705426;82;21202;-54
2022/04/18 08:45:16;;;;;;;17.65;10.38;;;;;;;4.08;61.53;94255.39;1711424;82;21012;-53
2022/04/18 08:53:16;;;;;;;31.73;20.50;;;;;;;4.35;59.62;94257.99;1708992;82;21887;-55
2022/04/18 08:55:43;;;;;;;15.85;11.48;;;;;;;4.47;59.15;94239.09;1691045;83;21198;-55
2022/04/18 08:58:14;;;;;;;10.65;7.42;;;;;;;4.75;58.61;94248.63;1686565;83;21547;-53
2022/04/18 09:00:41;;;;;;;13.43;7.55;;;;;;;5.10;57.06;94237.70;1697509;82;21103;-53
2022/04/18 09:03:13;;;;;;;8.03;6.75;;;;;;;5.38;56.51;94235.69;1646333;83;21975;-54
2022/04/18 09:05:42;;;;;;;11.48;7.08;;;;;;;5.72;55.56;94232.67;1713427;82;21119;-54
2022/04/18 09:08:10;;;;;;;15.25;8.08;;;;;;;6.05;54.20;94236.14;1691488;83;21136;-53
2022/04/18 09:10:40;;;;;;;8.50;6.83;;;;;;;6.32;52.77;94228.39;1715533;81;21099;-54
2022/04/18 09:13:13;;;;;;;11.95;6.08;;;;;;;6.50;51.65;94226.69;1721369;81;22070;-53
2022/04/18 09:15:52;;;;;;;21.68;7.65;;;;;;;6.55;51.29;94225.39;1693650;82;22041;-52
2022/04/18 09:18:20;;;;;;;7.28;6.58;;;;;;;6.53;51.20;94221.72;1699859;83;21086;-54
2022/04/18 09:20:52;;;;;;;18.65;13.03;;;;;;;6.58;51.03;94226.67;1697586;82;21205;-54
2022/04/18 09:23:33;;;;;;;15.45;10.88;;;;;;;6.62;50.93;94233.38;1703818;82;21530;-55
2022/04/18 09:26:19;;;;;;;30.37;14.13;;;;;;;6.58;51.99;94230.77;1700808;83;21578;-55
2022/04/18 09:28:46;;;;;;;27.10;13.78;;;;;;;6.48;51.10;94229.09;1703637;82;21525;-55
2022/04/18 09:31:20;;;;;;;9.58;7.85;;;;;;;6.22;52.40;94230.80;1707949;82;21022;-52
2022/04/18 09:33:55;;;;;;;;;;;;;;;6.02;53.06;94226.08;1720996;81;21259;-54
2022/04/18 09:36:24;;;;;;;10.50;7.60;;;;;;;5.74;54.14;94228.13;1686758;83;20205;-53
2022/04/18 09:38:53;;;;;;;12.65;8.80;;;;;;;5.55;54.46;94229.79;1712703;82;21591;-52
2022/04/18 09:41:37;;;;;;;14.65;7.62;;;;;;;5.52;54.65;94224.41;1713820;82;21057;-55
2022/04/18 09:44:08;;;;;;;12.20;7.35;;;;;;;5.44;55.50;94217.61;1724996;81;21018;-53
2022/04/18 09:46:37;;;;;;;7.67;6.62;;;;;;;5.45;55.50;94215.05;1705639;81;21625;-55
2022/04/18 09:49:05;;;;;;;8.98;6.00;;;;;;;5.54;55.27;94211.11;1703465;82;21159;-56
2022/04/18 09:51:38;;;;;;;17.90;6.65;;;;;;;5.78;54.07;94219.28;1702198;82;21045;-54
2022/04/18 09:54:11;;;;;;;9.95;6.37;;;;;;;6.10;53.12;94211.81;1689707;83;21039;-54
2022/04/18 09:56:51;;;;;;;19.30;9.93;;;;;;;6.56;53.12;94215.99;1671496;84;21023;-53
2022/04/18 09:59:20;;;;;;;6.20;5.60;;;;;;;7.09;52.10;94204.41;1700302;83;21175;-55
2022/04/18 10:01:47;;;;;;;8.20;6.30;;;;;;;7.68;50.36;94202.33;1682386;83;20996;-53
2022/04/18 10:04:16;;;;;;;6.80;6.03;;;;;;;8.23;48.50;94207.87;1712484;81;21790;-54
2022/04/18 10:06:45;;;;;;;8.98;7.03;;;;;;;8.79;46.11;94190.73;1717828;81;21600;-54
2022/04/18 10:09:13;;;;;;;8.35;6.47;;;;;;;9.28;45.79;94200.57;1718270;81;21013;-55
2022/04/18 10:11:41;;;;;;;6.17;5.58;;;;;;;9.68;45.58;94204.67;1707517;82;21237;-51
2022/04/18 10:14:08;;;;;;;5.03;4.60;;;;;;;9.84;42.05;94196.17;1679687;84;21103;-55
2022/04/18 10:16:35;;;;;;;8.13;7.00;;;;;;;10.10;42.29;94197.44;1683836;82;21091;-55
2022/04/18 10:19:27;;;;;;;17.00;9.85;;;;;;;10.31;39.38;94194.56;1658593;82;21062;-56
2022/04/18 10:22:09;;;;;;;9.63;6.30;;;;;;;10.36;41.99;94200.06;1701895;82;21522;-53
2022/04/18 10:24:48;;;;;;;9.23;6.92;;;;;;;10.16;45.39;94197.75;1706689;82;22313;-53
2022/04/18 10:27:50;;;;;;;5.80;4.80;;;;;;;9.75;46.30;94200.25;1702988;82;21058;-53
2022/04/18 10:30:18;;;;;;;10.48;6.17;;;;;;;9.22;45.79;94206.50;1702076;83;21634;-53
2022/04/18 10:32:46;;;;;;;8.28;5.47;;;;;;;8.86;48.89;94207.53;1708505;82;21123;-58
2022/04/18 10:35:13;;;;;;;13.03;6.78;;;;;;;8.68;48.97;94206.84;1685093;82;21101;-58
2022/04/18 10:37:42;;;;;;;19.75;10.15;;;;;;;8.43;48.88;94212.44;1681794;83;21362;-58
2022/04/18 10:40:11;;;;;;;9.53;6.62;;;;;;;8.13;50.52;94203.52;1705130;82;21065;-59
2022/04/18 10:42:43;;;;;;;20.50;13.50;;;;;;;7.81;51.13;94196.20;1700613;82;20994;-56
2022/04/18 10:45:12;;;;;;;14.85;11.40;;;;;;;7.60;52.35;94203.17;1701981;82;20999;-57
2022/04/18 10:48:01;;;;;;;8.48;7.62;;;;;;;7.81;50.53;94201.68;1710162;82;21573;-58
2022/04/18 10:50:39;;;;;;;9.85;7.08;;;;;;;8.24;48.39;94194.33;1701933;82;21079;-58
2022/04/18 10:53:26;;;;;;;6.55;4.22;;;;;;;8.73;48.37;94193.91;1703106;82;21073;-56
2022/04/18 10:55:59;;;;;;;4.87;4.40;;;;;;;9.25;46.94;94197.98;1703926;82;21144;-56
2022/04/18 10:58:31;;;;;;;8.53;4.80;;;;;;;9.75;45.54;94197.51;1702097;82;21232;-57
2022/04/18 11:01:00;;;;;;;7.92;6.85;;;;;;;10.27;45.45;94182.18;1702952;82;21017;-57
2022/04/18 11:03:56;;;;;;;7.58;5.83;;;;;;;10.58;44.38;94176.69;1694629;82;21305;-54
2022/04/18 11:06:38;;;;;;;6.95;5.30;;;;;;;10.85;43.55;94184.27;1681831;84;20972;-53
2022/04/18 11:09:08;;;;;;;12.05;8.85;;;;;;;10.96;42.58;94181.03;1716691;82;21050;-54
2022/04/18 11:11:53;;;;;;;6.65;5.83;;;;;;;10.90;43.68;94193.28;1677470;83;21005;-53
2022/04/18 11:14:27;;;;;;;9.23;7.58;;;;;;;11.10;42.34;94189.40;1713673;82;21057;-58
2022/04/18 11:17:00;;;;;;;10.25;9.35;;;;;;;11.00;42.42;94181.00;1704141;82;21078;-53
2022/04/18 11:19:32;;;;;;;4.80;4.30;;;;;;;10.92;43.02;94188.67;1687245;83;22253;-54
2022/04/18 11:22:04;;;;;;;7.47;5.78;;;;;;;10.66;42.16;94199.11;1701315;83;21101;-55
2022/04/18 11:24:52;;;;;;;10.48;6.20;;;;;;;10.01;44.46;94189.95;1698912;83;21117;-54
2022/04/18 11:27:29;;;;;;;7.95;5.97;;;;;;;9.41;47.20;94192.25;1697350;83;21246;-51
2022/04/18 11:30:06;;;;;;;8.03;6.70;;;;;;;8.78;49.35;94193.32;1701909;83;21165;-52
2022/04/18 11:32:41;;;;;;;7.60;6.40;;;;;;;8.45;50.44;94188.08;1701879;83;21703;-58
2022/04/18 11:35:11;;;;;;;9.88;7.30;;;;;;;8.18;51.08;94187.90;1714497;82;21035;-53
2022/04/18 11:37:43;;;;;;;11.08;6.53;;;;;;;8.01;51.89;94185.14;1711689;82;21541;-51
2022/04/18 11:40:22;;;;;;;8.63;6.83;;;;;;;7.82;53.06;94180.72;1698396;83;21491;-51
2022/04/18 11:42:50;;;;;;;8.30;7.10;;;;;;;7.68;53.18;94178.45;1697659;83;21394;-55
2022/04/18 11:45:25;;;;;;;7.45;6.55;;;;;;;7.70;52.86;94168.44;1702707;83;21031;-51
2022/04/18 11:47:53;;;;;;;5.55;5.03;;;;;;;7.94;52.45;94174.44;1712212;82;21102;-52
2022/04/18 11:50:23;;;;;;;7.17;5.12;;;;;;;8.43;50.17;94168.58;1707333;82;21076;-56
2022/04/18 11:53:02;;;;;;;15.25;7.15;;;;;;;8.90;48.37;94159.56;1690266;83;21028;-52
2022/04/18 11:55:29;;;;;;;14.35;5.95;;;;;;;9.47;46.89;94152.75;1701629;83;21800;-53
2022/04/18 11:57:56;;;;;;;8.13;5.03;;;;;;;10.05;45.00;94141.13;1711236;82;21494;-53
2022/04/18 12:08:47;;;;;;;8.25;6.40;;;;;;;10.13;41.92;94131.97;1693510;83;21292;-54
2022/04/18 12:11:15;;;;;;;14.13;11.28;;;;;;;9.99;42.59;94128.42;1700835;82;21102;-52